createdAt,value
2022-09-16T00:01:01.065Z,23.40
2022-09-16T00:03:36.788Z,23.20
2022-09-16T00:19:35.411Z,21.70
2022-09-16T00:22:07.221Z,21.70
2022-09-16T00:24:39.490Z,21.50
2022-09-16T00:27:14.526Z,21.60
2022-09-16T00:29:49.948Z,21.80
2022-09-16T00:32:22.252Z,21.80
2022-09-16T00:34:57.447Z,21.50
2022-09-16T00:37:32.968Z,21.30
2022-09-16T00:40:08.464Z,21.30
2022-09-16T00:42:42.854Z,21.30
2022-09-16T00:45:22.374Z,21.10
2022-09-16T00:47:58.039Z,21.00
2022-09-16T01:04:08.045Z,20.50
2022-09-16T01:06:44.297Z,20.60
2022-09-16T01:09:18.621Z,20.50
2022-09-16T01:11:51.783Z,20.40
2022-09-16T01:14:41.694Z,20.40
2022-09-16T01:17:24.184Z,20.40
2022-09-16T01:33:56.775Z,20.20
2022-09-16T01:36:40.203Z,19.70
2022-09-16T01:39:24.749Z,19.60
2022-09-16T01:42:11.042Z,19.50
2022-09-16T01:44:49.417Z,19.40
2022-09-16T01:47:36.716Z,19.40
2022-09-16T01:50:22.269Z,19.30
2022-09-16T01:53:03.073Z,19.20
2022-09-16T01:55:41.298Z,19.20
2022-09-16T01:58:21.141Z,19.10
2022-09-16T02:00:54.985Z,18.90
2022-09-16T02:03:30.307Z,18.90
2022-09-16T02:06:09.236Z,18.80
2022-09-16T02:08:47.958Z,18.70
2022-09-16T02:11:21.979Z,18.60
2022-09-16T02:13:57.460Z,18.50
2022-09-16T02:16:35.035Z,18.40
2022-09-16T02:19:14.384Z,18.30
2022-09-16T02:21:50.223Z,18.20
2022-09-16T02:24:25.282Z,18.10
2022-09-16T02:27:02.454Z,18.00
2022-09-16T02:29:40.003Z,17.90
2022-09-16T02:32:14.265Z,17.80
2022-09-16T02:34:48.772Z,17.60
2022-09-16T02:37:26.584Z,17.60
2022-09-16T02:40:03.145Z,17.50
2022-09-16T02:42:38.143Z,17.40
2022-09-16T02:45:10.205Z,17.40
2022-09-16T02:47:51.075Z,17.30
2022-09-16T02:50:29.631Z,17.30
2022-09-16T02:53:05.847Z,17.20
2022-09-16T02:55:42.890Z,17.20
2022-09-16T02:58:16.000Z,17.20
2022-09-16T03:00:51.326Z,17.10
2022-09-16T03:03:24.321Z,17.10
2022-09-16T03:06:27.233Z,17.10
2022-09-16T03:09:03.895Z,17.00
2022-09-16T03:11:56.468Z,17.00
2022-09-16T03:14:58.795Z,16.90
2022-09-16T03:17:51.900Z,16.90
2022-09-16T03:23:14.259Z,16.80
2022-09-16T03:26:01.264Z,16.70
2022-09-16T03:28:42.632Z,16.60
2022-09-16T03:33:55.590Z,16.50
2022-09-16T03:36:38.608Z,16.40
2022-09-16T03:39:11.898Z,16.40
2022-09-16T03:41:46.650Z,16.30
2022-09-16T03:44:18.629Z,16.20
2022-09-16T03:46:53.284Z,16.10
2022-09-16T03:49:27.817Z,16.20
2022-09-16T03:51:59.948Z,16.10
2022-09-16T03:54:32.888Z,16.10
2022-09-16T03:57:08.399Z,16.00
2022-09-16T03:59:40.967Z,16.00
2022-09-16T04:02:13.855Z,16.00
2022-09-16T04:04:46.463Z,16.10
2022-09-16T04:07:18.452Z,16.00
2022-09-16T04:09:50.524Z,16.00
2022-09-16T04:12:25.697Z,16.00
2022-09-16T04:14:58.855Z,16.10
2022-09-16T04:17:36.467Z,16.00
2022-09-16T04:20:09.987Z,16.00
2022-09-16T04:22:42.947Z,16.00
2022-09-16T04:25:16.386Z,16.00
2022-09-16T04:27:55.151Z,16.10
2022-09-16T04:30:27.984Z,16.00
2022-09-16T04:33:04.107Z,15.90
2022-09-16T04:35:36.113Z,15.90
2022-09-16T04:38:09.752Z,15.90
2022-09-16T04:40:44.542Z,15.90
2022-09-16T04:43:19.191Z,15.90
2022-09-16T04:45:50.749Z,15.90
2022-09-16T04:48:26.516Z,15.90
2022-09-16T04:50:59.169Z,15.90
2022-09-16T04:53:31.167Z,15.90
2022-09-16T04:56:09.741Z,15.90
2022-09-16T04:58:48.852Z,15.90
2022-09-16T05:01:32.276Z,15.80
2022-09-16T05:04:07.086Z,15.80
2022-09-16T05:06:42.506Z,15.70
2022-09-16T05:09:16.925Z,15.70
2022-09-16T05:11:49.320Z,15.70
2022-09-16T05:14:24.453Z,15.60
2022-09-16T05:16:56.722Z,15.60
2022-09-16T05:19:30.384Z,15.50
2022-09-16T05:22:04.118Z,15.50
2022-09-16T05:24:42.198Z,15.40
2022-09-16T05:27:15.226Z,15.40
2022-09-16T05:29:53.683Z,15.40
2022-09-16T05:32:26.187Z,15.40
2022-09-16T05:34:59.055Z,15.40
2022-09-16T05:37:32.020Z,15.40
2022-09-16T05:40:03.455Z,15.40
2022-09-16T05:42:36.724Z,15.30
2022-09-16T05:45:13.975Z,15.30
2022-09-16T05:47:46.213Z,15.20
2022-09-16T05:50:18.513Z,15.20
2022-09-16T05:52:50.395Z,15.20
2022-09-16T05:55:22.045Z,15.10
2022-09-16T05:57:54.329Z,15.00
2022-09-16T06:00:29.570Z,14.90
2022-09-16T06:03:04.606Z,14.90
2022-09-16T06:05:36.176Z,14.80
2022-09-16T06:08:07.726Z,14.80
2022-09-16T06:10:42.856Z,14.80
2022-09-16T06:13:14.405Z,14.70
2022-09-16T06:15:56.304Z,14.60
2022-09-16T06:18:29.538Z,14.60
2022-09-16T06:21:02.064Z,14.50
2022-09-16T06:23:33.304Z,14.60
2022-09-16T06:26:08.103Z,14.60
2022-09-16T06:28:40.989Z,14.50
2022-09-16T06:31:15.994Z,14.50
2022-09-16T06:33:55.981Z,14.50
2022-09-16T06:36:31.462Z,14.40
2022-09-16T06:39:03.521Z,14.40
2022-09-16T06:41:37.441Z,14.40
2022-09-16T06:44:09.649Z,14.50
2022-09-16T06:46:46.873Z,14.50
2022-09-16T06:49:18.863Z,14.50
2022-09-16T06:51:54.527Z,14.40
2022-09-16T06:54:26.067Z,14.40
2022-09-16T06:56:59.014Z,14.40
2022-09-16T06:59:31.615Z,14.50
2022-09-16T07:02:10.844Z,14.50
2022-09-16T07:04:43.053Z,14.50
2022-09-16T07:07:17.024Z,14.50
2022-09-16T07:09:50.236Z,14.50
2022-09-16T07:12:24.515Z,14.40
2022-09-16T07:14:55.905Z,14.40
2022-09-16T07:17:31.654Z,14.50
2022-09-16T07:20:03.927Z,14.50
2022-09-16T07:22:36.157Z,14.50
2022-09-16T07:25:08.459Z,14.50
2022-09-16T07:27:40.263Z,14.50
2022-09-16T07:30:13.087Z,14.50
2022-09-16T07:32:47.652Z,14.50
2022-09-16T07:35:22.008Z,14.60
2022-09-16T07:37:55.929Z,14.60
2022-09-16T07:40:29.748Z,14.60
2022-09-16T07:43:02.714Z,14.60
2022-09-16T07:45:34.865Z,14.60
2022-09-16T07:48:10.224Z,14.50
2022-09-16T07:50:41.771Z,14.50
2022-09-16T07:53:13.282Z,14.60
2022-09-16T07:55:45.397Z,14.60
2022-09-16T07:58:18.459Z,14.50
2022-09-16T08:00:50.173Z,14.50
2022-09-16T08:03:25.945Z,14.50
2022-09-16T08:06:03.063Z,14.60
2022-09-16T08:08:35.408Z,14.60
2022-09-16T08:11:09.623Z,14.60
2022-09-16T08:13:44.712Z,14.60
2022-09-16T08:16:21.305Z,14.60
2022-09-16T08:19:00.713Z,14.60
2022-09-16T08:21:34.750Z,14.60
2022-09-16T08:24:06.986Z,14.60
2022-09-16T08:26:39.353Z,14.60
2022-09-16T08:29:11.124Z,14.60
2022-09-16T08:31:46.255Z,14.60
2022-09-16T08:34:22.972Z,14.60
2022-09-16T08:36:54.598Z,14.70
2022-09-16T08:39:27.862Z,14.60
2022-09-16T08:42:51.609Z,14.50
2022-09-16T08:45:31.560Z,14.50
2022-09-16T08:48:17.429Z,14.60
2022-09-16T08:50:52.173Z,14.60
2022-09-16T08:53:30.913Z,14.60
2022-09-16T08:56:06.557Z,14.60
2022-09-16T08:58:44.841Z,14.60
2022-09-16T09:01:26.300Z,14.50
2022-09-16T09:03:58.659Z,14.60
2022-09-16T09:06:52.283Z,14.60
2022-09-16T09:09:47.704Z,14.60
2022-09-16T09:12:26.739Z,14.60
2022-09-16T09:15:27.512Z,14.60
2022-09-16T09:18:19.026Z,14.60
2022-09-16T09:21:00.901Z,14.70
2022-09-16T09:23:52.585Z,14.60
2022-09-16T09:26:27.324Z,14.60
2022-09-16T09:29:18.790Z,14.60
2022-09-16T09:31:59.811Z,14.60
2022-09-16T09:34:47.675Z,14.60
2022-09-16T09:37:34.685Z,14.70
2022-09-16T09:40:18.804Z,14.60
2022-09-16T09:42:56.464Z,14.60
2022-09-16T09:45:33.721Z,14.60
2022-09-16T09:48:12.718Z,14.60
2022-09-16T09:50:48.029Z,14.60
2022-09-16T09:53:24.985Z,14.60
2022-09-16T09:56:15.175Z,14.60
2022-09-16T09:58:53.481Z,14.60
2022-09-16T10:01:25.698Z,14.60
2022-09-16T10:04:01.392Z,14.70
2022-09-16T10:06:36.943Z,14.70
2022-09-16T10:09:10.730Z,14.60
2022-09-16T10:11:52.997Z,14.60
2022-09-16T10:14:31.544Z,14.60
2022-09-16T10:17:07.938Z,14.60
2022-09-16T10:19:44.773Z,14.60
2022-09-16T10:22:30.424Z,14.60
2022-09-16T10:25:08.354Z,14.60
2022-09-16T10:27:44.586Z,14.60
2022-09-16T10:32:58.574Z,14.60
2022-09-16T10:35:34.363Z,14.60
2022-09-16T10:38:14.054Z,14.60
2022-09-16T10:40:58.825Z,14.60
2022-09-16T10:43:36.415Z,14.60
2022-09-16T10:46:10.814Z,14.60
2022-09-16T10:48:47.820Z,14.70
2022-09-16T10:51:28.543Z,14.60
2022-09-16T10:54:02.829Z,14.60
2022-09-16T10:56:37.136Z,14.60
2022-09-16T10:59:16.639Z,14.50
2022-09-16T11:01:56.611Z,14.50
2022-09-16T11:04:52.144Z,14.50
2022-09-16T11:07:35.832Z,14.50
2022-09-16T11:10:26.197Z,14.50
2022-09-16T11:13:23.419Z,14.40
2022-09-16T11:16:17.402Z,14.50
2022-09-16T11:18:59.100Z,14.50
2022-09-16T11:22:01.744Z,14.50
2022-09-16T11:25:07.558Z,14.60
2022-09-16T11:27:50.854Z,14.50
2022-09-16T11:30:25.515Z,14.50
2022-09-16T11:33:18.783Z,14.40
2022-09-16T11:36:35.900Z,14.40
2022-09-16T11:39:29.350Z,14.40
2022-09-16T11:42:09.243Z,14.40
2022-09-16T11:44:49.931Z,14.40
2022-09-16T11:47:42.167Z,14.40
2022-09-16T11:50:39.334Z,14.30
2022-09-16T11:53:42.536Z,14.30
2022-09-16T11:56:21.345Z,14.40
2022-09-16T11:58:58.397Z,14.40
2022-09-16T12:01:38.308Z,14.40
2022-09-16T12:04:16.117Z,14.40
2022-09-16T12:06:59.864Z,14.40
2022-09-16T12:09:40.379Z,14.40
2022-09-16T12:12:18.279Z,14.40
2022-09-16T12:14:54.840Z,14.40
2022-09-16T12:17:30.551Z,14.40
2022-09-16T12:20:04.272Z,14.40
2022-09-16T12:22:43.781Z,14.30
2022-09-16T12:25:20.463Z,14.40
2022-09-16T12:27:57.953Z,14.30
2022-09-16T12:30:35.566Z,14.30
2022-09-16T12:33:17.961Z,14.30
2022-09-16T12:38:47.179Z,14.40
2022-09-16T12:41:53.419Z,14.30
2022-09-16T12:45:01.532Z,14.30
2022-09-16T12:48:00.844Z,14.40
2022-09-16T12:50:53.018Z,14.30
2022-09-16T12:54:08.855Z,14.40
2022-09-16T12:57:08.726Z,14.30
2022-09-16T12:59:53.503Z,14.30
2022-09-16T13:02:31.655Z,14.40
2022-09-16T13:05:16.936Z,14.30
2022-09-16T13:07:54.785Z,14.30
2022-09-16T13:10:54.705Z,14.30
2022-09-16T13:13:38.657Z,14.30
2022-09-16T13:18:49.350Z,14.30
2022-09-16T13:21:28.281Z,14.40
2022-09-16T13:24:08.515Z,14.30
2022-09-16T13:26:46.879Z,14.40
2022-09-16T13:29:47.400Z,14.40
2022-09-16T13:32:45.293Z,14.50
2022-09-16T13:35:41.422Z,14.40
2022-09-16T13:38:30.609Z,14.40
2022-09-16T13:41:08.165Z,14.40
2022-09-16T13:43:53.125Z,14.40
2022-09-16T13:46:38.650Z,14.40
2022-09-16T13:49:27.039Z,14.40
2022-09-16T13:52:00.151Z,14.40
2022-09-16T13:54:47.921Z,14.40
2022-09-16T13:57:57.260Z,14.40
2022-09-16T14:00:35.385Z,14.40
2022-09-16T14:03:39.405Z,14.40
2022-09-16T14:06:32.360Z,14.40
2022-09-16T14:09:10.508Z,14.40
2022-09-16T14:11:53.036Z,14.30
2022-09-16T14:14:46.509Z,14.40
2022-09-16T14:17:25.751Z,14.30
2022-09-16T14:20:03.521Z,14.20
2022-09-16T14:22:35.874Z,14.20
2022-09-16T14:25:19.587Z,14.30
2022-09-16T14:28:23.280Z,14.30
2022-09-16T14:30:58.478Z,14.30
2022-09-16T14:33:36.654Z,14.30
2022-09-16T14:36:21.692Z,14.30
2022-09-16T14:38:58.731Z,14.30
2022-09-16T14:41:35.054Z,14.30
2022-09-16T14:44:14.121Z,14.30
2022-09-16T14:46:48.715Z,14.30
2022-09-16T14:49:23.598Z,14.20
2022-09-16T14:52:03.839Z,14.20
2022-09-16T14:54:36.693Z,14.20
2022-09-16T14:57:10.661Z,14.20
2022-09-16T14:59:44.401Z,14.20
2022-09-16T15:02:22.940Z,14.20
2022-09-16T15:04:58.999Z,14.10
2022-09-16T15:07:50.629Z,14.20
2022-09-16T15:10:49.913Z,14.20
2022-09-16T15:13:25.575Z,14.30
2022-09-16T15:16:01.064Z,14.30
2022-09-16T15:18:36.683Z,14.40
2022-09-16T15:21:12.670Z,14.50
2022-09-16T15:23:51.637Z,14.40
2022-09-16T15:26:26.371Z,14.50
2022-09-16T15:29:00.688Z,14.40
2022-09-16T15:31:36.050Z,14.50
2022-09-16T15:34:22.818Z,14.50
2022-09-16T15:36:55.773Z,14.60
2022-09-16T15:39:32.075Z,14.60
2022-09-16T15:42:25.923Z,14.60
2022-09-16T15:44:59.187Z,14.60
2022-09-16T15:47:33.092Z,14.60
2022-09-16T15:50:10.018Z,14.50
2022-09-16T15:53:00.188Z,14.50
2022-09-16T15:55:38.766Z,14.50
2022-09-16T15:58:16.802Z,14.60
2022-09-16T16:01:11.605Z,14.60
2022-09-16T16:03:57.230Z,14.60
2022-09-16T16:06:54.341Z,14.80
2022-09-16T16:10:07.373Z,14.90
2022-09-16T16:12:40.466Z,15.00
2022-09-16T16:15:11.980Z,15.10
2022-09-16T16:17:45.045Z,15.10
2022-09-16T16:20:16.806Z,15.20
2022-09-16T16:22:49.042Z,15.40
2022-09-16T16:25:21.127Z,15.60
2022-09-16T16:27:56.162Z,15.70
2022-09-16T16:30:30.704Z,15.80
2022-09-16T16:33:04.952Z,15.60
2022-09-16T16:35:36.685Z,15.60
2022-09-16T16:38:11.234Z,15.50
2022-09-16T16:40:44.515Z,15.30
2022-09-16T16:43:18.993Z,15.20
2022-09-16T16:45:58.074Z,15.30
2022-09-16T16:48:32.528Z,15.20
2022-09-16T16:51:06.414Z,15.30
2022-09-16T16:53:39.885Z,15.20
2022-09-16T16:56:20.433Z,15.00
2022-09-16T16:58:55.100Z,14.80
2022-09-16T17:01:28.431Z,15.00
2022-09-16T17:04:02.715Z,15.10
2022-09-16T17:06:38.406Z,15.10
2022-09-16T17:09:15.682Z,15.10
2022-09-16T17:11:59.547Z,15.00
2022-09-16T17:14:34.468Z,15.20
2022-09-16T17:17:06.905Z,15.30
2022-09-16T17:19:43.679Z,15.60
2022-09-16T17:22:18.334Z,15.80
2022-09-16T17:24:49.771Z,15.80
2022-09-16T17:27:26.130Z,15.90
2022-09-16T17:30:02.648Z,15.70
2022-09-16T17:32:37.159Z,15.60
2022-09-16T17:35:10.103Z,15.40
2022-09-16T17:37:43.639Z,14.90
2022-09-16T17:40:18.382Z,14.90
2022-09-16T17:42:55.902Z,14.80
2022-09-16T17:45:31.438Z,14.70
2022-09-16T17:48:03.738Z,14.90
2022-09-16T17:50:36.095Z,15.00
2022-09-16T17:55:44.305Z,15.10
2022-09-16T17:58:16.026Z,15.00
2022-09-16T18:00:50.706Z,15.00
2022-09-16T18:03:22.217Z,15.10
2022-09-16T18:05:54.683Z,15.20
2022-09-16T18:08:27.043Z,15.60
2022-09-16T18:11:01.029Z,15.70
2022-09-16T18:16:20.017Z,16.20
2022-09-16T18:18:57.951Z,16.10
2022-09-16T18:21:31.911Z,16.20
2022-09-16T18:24:04.547Z,16.20
2022-09-16T18:53:38.111Z,16.80
2022-09-16T18:56:14.274Z,17.10
2022-09-16T18:59:03.714Z,17.20
2022-09-16T19:01:50.355Z,17.00
2022-09-16T19:04:24.120Z,16.70
2022-09-16T19:06:57.593Z,16.40
2022-09-16T19:09:32.754Z,16.40
2022-09-16T19:12:05.397Z,16.70
2022-09-16T19:14:37.552Z,16.60
2022-09-16T19:17:13.241Z,16.40
2022-09-16T19:19:44.393Z,16.40
2022-09-16T19:22:16.071Z,16.70
2022-09-16T19:24:50.558Z,16.60
2022-09-16T19:27:22.005Z,16.90
2022-09-16T19:29:56.037Z,17.10
2022-09-16T19:32:28.636Z,17.20
2022-09-16T19:35:03.161Z,17.20
2022-09-16T19:37:34.428Z,17.20
2022-09-16T19:40:11.006Z,17.20
2022-09-16T19:42:43.977Z,17.30
2022-09-16T19:45:15.887Z,17.30
2022-09-16T19:47:47.820Z,17.50
2022-09-16T19:50:19.184Z,17.30
2022-09-16T19:52:52.459Z,17.40
2022-09-16T19:55:26.500Z,17.50
2022-09-16T19:57:59.142Z,17.50
2022-09-16T20:03:12.741Z,17.30
2022-09-16T20:05:45.116Z,17.60
2022-09-16T20:08:17.400Z,17.50
2022-09-16T20:10:52.420Z,17.70
2022-09-16T20:13:25.599Z,17.60
2022-09-16T20:16:01.663Z,17.90
2022-09-16T20:18:33.872Z,18.00
2022-09-16T20:21:06.549Z,18.20
2022-09-16T20:23:39.588Z,18.20
2022-09-16T20:26:16.968Z,18.40
2022-09-16T20:31:36.581Z,18.30
2022-09-16T20:34:09.041Z,18.30
2022-09-16T20:36:43.741Z,18.50
2022-09-16T20:39:16.635Z,18.90
2022-09-16T20:41:53.473Z,19.10
2022-09-16T20:44:25.763Z,19.00
2022-09-16T20:46:57.214Z,19.30
2022-09-16T20:49:30.101Z,19.70
2022-09-16T20:52:01.630Z,19.60
2022-09-16T20:54:34.783Z,19.50
2022-09-16T20:57:09.502Z,19.40
2022-09-16T21:02:19.424Z,19.30
2022-09-16T21:12:56.021Z,18.80
2022-09-16T21:15:29.172Z,18.70
2022-09-16T21:18:02.576Z,18.90
2022-09-16T21:20:34.499Z,19.00
2022-09-16T21:23:07.121Z,19.10
2022-09-16T21:28:17.441Z,19.30
2022-09-16T21:33:18.433Z,19.70
2022-09-16T21:35:55.063Z,19.70
2022-09-16T21:38:28.858Z,19.90
2022-09-16T21:41:01.452Z,20.00
2022-09-16T21:43:37.611Z,20.00
2022-09-16T21:46:09.670Z,19.80
2022-09-16T21:48:41.908Z,19.80
2022-09-16T21:51:15.864Z,19.80
2022-09-16T21:53:48.043Z,20.00
2022-09-16T21:56:21.407Z,20.00
2022-09-16T21:58:59.424Z,20.20
2022-09-16T22:01:33.581Z,19.90
2022-09-16T22:04:06.925Z,19.90
2022-09-16T22:06:40.948Z,20.20
2022-09-16T22:09:12.902Z,20.50
2022-09-16T22:11:48.185Z,21.00
2022-09-16T22:14:21.780Z,21.10
2022-09-16T22:16:53.259Z,20.70
2022-09-16T22:19:25.264Z,20.70
2022-09-16T22:21:56.361Z,20.60
2022-09-16T22:24:28.176Z,20.70
2022-09-16T22:26:59.216Z,20.90
2022-09-16T22:29:32.686Z,21.00
2022-09-16T22:32:06.879Z,20.90
2022-09-16T22:34:39.578Z,21.10
2022-09-16T22:37:11.637Z,21.20
2022-09-16T22:39:43.097Z,21.20
2022-09-16T22:42:17.874Z,21.00
2022-09-16T22:44:50.957Z,20.90
2022-09-16T22:52:41.321Z,20.60
2022-09-16T22:55:15.471Z,20.50
2022-09-16T22:57:47.064Z,20.40
2022-09-16T23:00:23.588Z,20.30
2022-09-16T23:02:55.019Z,20.10
2022-09-16T23:05:26.578Z,19.70
2022-09-16T23:07:57.784Z,19.40
2022-09-16T23:10:29.602Z,19.30
2022-09-16T23:13:02.777Z,19.00
2022-09-16T23:15:39.746Z,18.90
2022-09-16T23:18:14.573Z,18.80
2022-09-16T23:20:47.900Z,19.00
2022-09-16T23:23:18.942Z,19.10
2022-09-16T23:25:51.365Z,19.10
2022-09-16T23:28:23.590Z,19.00
2022-09-16T23:31:00.292Z,19.00
2022-09-16T23:36:16.045Z,18.90
2022-09-16T23:41:30.670Z,18.90
2022-09-16T23:44:03.117Z,18.90
2022-09-16T23:46:39.715Z,19.00
2022-09-16T23:49:12.645Z,19.00
2022-09-16T23:51:43.905Z,19.00
2022-09-16T23:54:15.613Z,18.90
2022-09-16T23:56:48.277Z,18.90
2022-09-16T23:59:22.549Z,18.70
